createdAt,value
2017-08-03T00:00:49.215Z,29.2
2017-08-03T00:01:51.344Z,29.2
2017-08-03T00:02:53.475Z,29.1
2017-08-03T00:03:55.271Z,29.1
2017-08-03T00:04:57.404Z,29.1
2017-08-03T00:05:59.536Z,29.1
2017-08-03T00:07:01.665Z,29.1
2017-08-03T00:08:03.796Z,29.2
2017-08-03T00:09:05.572Z,29.1
2017-08-03T00:10:07.758Z,29.1
2017-08-03T00:11:09.199Z,29.1
2017-08-03T00:12:11.331Z,29.2
2017-08-03T00:13:13.130Z,29.1
2017-08-03T00:14:15.263Z,29.1
2017-08-03T00:15:17.059Z,29.1
2017-08-03T00:16:19.217Z,29.1
2017-08-03T00:17:21.015Z,29.1
2017-08-03T00:18:23.146Z,29.2
2017-08-03T00:19:25.277Z,29.1
2017-08-03T00:20:27.091Z,29.1
2017-08-03T00:21:29.233Z,29.1
2017-08-03T00:22:31.364Z,29.2
2017-08-03T00:23:33.165Z,29.1
2017-08-03T00:24:34.608Z,29.1
2017-08-03T00:25:36.383Z,29.1
2017-08-03T00:26:38.186Z,29.1
2017-08-03T00:27:40.316Z,29.1
2017-08-03T00:28:42.120Z,29.1
2017-08-03T00:29:44.251Z,29.1
2017-08-03T00:30:45.695Z,29.1
2017-08-03T00:31:47.827Z,29.1
2017-08-03T00:32:49.623Z,29.1
2017-08-03T00:33:51.422Z,29.1
2017-08-03T00:34:52.889Z,29.1
2017-08-03T00:35:54.684Z,29.1
2017-08-03T00:36:56.816Z,29.1
2017-08-03T00:37:58.978Z,29.1
2017-08-03T00:39:00.785Z,29.2
2017-08-03T00:40:02.585Z,29.1
2017-08-03T00:41:04.717Z,29.1
2017-08-03T00:42:06.514Z,29
2017-08-03T00:43:08.649Z,29.1
2017-08-03T00:44:10.446Z,29.1
2017-08-03T00:45:12.579Z,29.1
2017-08-03T00:46:14.709Z,29.1
2017-08-03T00:47:16.512Z,29
2017-08-03T00:48:18.690Z,29.1
2017-08-03T00:49:20.485Z,29
2017-08-03T00:50:22.285Z,29.1
2017-08-03T00:51:24.417Z,29.1
2017-08-03T00:52:26.547Z,29.1
2017-08-03T00:53:28.344Z,29
2017-08-03T00:54:30.140Z,29
2017-08-03T00:55:31.923Z,29
2017-08-03T00:56:33.697Z,29
2017-08-03T00:57:35.498Z,29
2017-08-03T00:58:37.626Z,29.1
2017-08-03T00:59:39.096Z,29
2017-08-03T01:00:40.230Z,29
2017-08-03T01:01:42.028Z,29
2017-08-03T01:02:44.159Z,29
2017-08-03T01:03:46.292Z,29
2017-08-03T01:04:48.089Z,29
2017-08-03T01:05:50.222Z,29
2017-08-03T01:06:51.413Z,29
2017-08-03T01:07:53.543Z,29
2017-08-03T01:08:55.674Z,29
2017-08-03T01:09:57.805Z,29
2017-08-03T01:10:59.938Z,29
2017-08-03T01:12:02.070Z,29
2017-08-03T01:13:04.201Z,29
2017-08-03T01:14:06.001Z,29
2017-08-03T01:15:07.459Z,29
2017-08-03T01:16:08.914Z,29
2017-08-03T01:17:11.044Z,29.1
2017-08-03T01:18:12.846Z,29
2017-08-03T01:19:14.622Z,29
2017-08-03T01:20:16.419Z,29
2017-08-03T01:21:18.575Z,29
2017-08-03T01:22:20.374Z,29
2017-08-03T01:23:22.150Z,29
2017-08-03T01:24:23.954Z,29
2017-08-03T01:25:25.420Z,29
2017-08-03T01:26:27.200Z,29
2017-08-03T01:27:28.652Z,29
2017-08-03T01:28:30.440Z,29
2017-08-03T01:29:31.576Z,29
2017-08-03T01:30:33.703Z,29
2017-08-03T01:31:35.502Z,29
2017-08-03T01:32:36.953Z,29
2017-08-03T01:33:38.728Z,29
2017-08-03T01:34:40.862Z,29
2017-08-03T01:35:43.020Z,29
2017-08-03T01:36:45.150Z,28.9
2017-08-03T01:37:47.281Z,29
2017-08-03T01:38:49.414Z,29
2017-08-03T01:39:51.192Z,28.9
2017-08-03T01:40:52.991Z,29
2017-08-03T01:41:54.434Z,29
2017-08-03T01:42:56.567Z,29
2017-08-03T01:43:58.341Z,29
2017-08-03T01:45:00.142Z,29
2017-08-03T01:46:01.925Z,29
2017-08-03T01:47:03.722Z,29
2017-08-03T01:48:05.183Z,29
2017-08-03T01:49:07.316Z,29
2017-08-03T01:50:09.448Z,29
2017-08-03T01:51:11.579Z,29
2017-08-03T01:52:13.713Z,29
2017-08-03T01:53:15.493Z,28.9
2017-08-03T01:54:17.292Z,28.9
2017-08-03T01:55:19.090Z,29
2017-08-03T01:56:21.221Z,29
2017-08-03T01:57:23.353Z,28.9
2017-08-03T01:58:25.151Z,28.9
2017-08-03T01:59:27.282Z,29
2017-08-03T02:00:29.411Z,28.9
2017-08-03T02:01:31.548Z,29
2017-08-03T02:02:33.707Z,29
2017-08-03T02:03:35.509Z,28.9
2017-08-03T02:04:37.633Z,29
2017-08-03T02:05:39.764Z,28.9
2017-08-03T02:06:41.896Z,29
2017-08-03T02:07:44.027Z,28.9
2017-08-03T02:08:46.156Z,28.9
2017-08-03T02:09:47.939Z,28.9
2017-08-03T02:10:50.070Z,28.9
2017-08-03T02:11:51.892Z,29
2017-08-03T02:12:54.024Z,28.9
2017-08-03T02:13:55.132Z,28.9
2017-08-03T02:14:56.571Z,29
2017-08-03T02:15:58.374Z,29
2017-08-03T02:17:00.176Z,28.9
2017-08-03T02:18:02.303Z,29
2017-08-03T02:19:04.433Z,29
2017-08-03T02:20:06.235Z,28.9
2017-08-03T02:21:07.709Z,28.9
2017-08-03T02:22:09.506Z,29
2017-08-03T02:23:11.638Z,29
2017-08-03T02:24:13.784Z,28.9
2017-08-03T02:25:15.914Z,28.9
2017-08-03T02:26:17.716Z,28.9
2017-08-03T02:27:19.848Z,29
2017-08-03T02:28:21.650Z,29
2017-08-03T02:29:23.784Z,28.9
2017-08-03T02:30:25.561Z,28.9
2017-08-03T02:31:27.359Z,28.9
2017-08-03T02:32:28.808Z,28.9
2017-08-03T02:33:29.938Z,28.9
2017-08-03T02:34:31.411Z,28.9
2017-08-03T02:35:33.188Z,28.9
2017-08-03T02:36:35.322Z,29
2017-08-03T02:37:37.118Z,28.9
2017-08-03T02:38:38.926Z,28.9
2017-08-03T02:39:41.048Z,28.9
2017-08-03T02:40:43.180Z,28.9
2017-08-03T02:41:45.313Z,28.9
2017-08-03T02:42:47.446Z,28.8
2017-08-03T02:43:49.589Z,28.9
2017-08-03T02:44:51.720Z,28.9
2017-08-03T02:45:53.505Z,29
2017-08-03T02:46:55.644Z,28.9
2017-08-03T02:47:57.111Z,28.9
2017-08-03T02:48:59.239Z,28.9
2017-08-03T02:50:01.372Z,28.9
2017-08-03T02:51:03.154Z,28.9
2017-08-03T02:52:05.280Z,28.9
2017-08-03T02:53:07.079Z,28.9
2017-08-03T02:54:09.223Z,29
2017-08-03T02:55:11.356Z,28.9
2017-08-03T02:56:13.491Z,28.8
2017-08-03T02:57:14.953Z,28.9
2017-08-03T02:58:17.086Z,28.9
2017-08-03T02:59:18.884Z,28.9
2017-08-03T03:00:20.706Z,28.9
2017-08-03T03:01:22.839Z,28.9
2017-08-03T03:02:24.636Z,28.9
2017-08-03T03:03:26.080Z,28.9
2017-08-03T03:04:27.877Z,28.9
2017-08-03T03:05:30.028Z,28.9
2017-08-03T03:06:31.494Z,28.9
2017-08-03T03:07:33.290Z,28.8
2017-08-03T03:08:35.069Z,28.9
2017-08-03T03:09:36.533Z,28.9
2017-08-03T03:10:38.673Z,28.9
2017-08-03T03:11:40.475Z,28.9
2017-08-03T03:12:42.605Z,28.8
2017-08-03T03:13:44.404Z,28.8
2017-08-03T03:14:46.206Z,28.9
2017-08-03T03:15:48.337Z,28.9
2017-08-03T03:16:50.115Z,28.9
2017-08-03T03:17:51.564Z,28.9
2017-08-03T03:18:53.361Z,28.8
2017-08-03T03:19:55.140Z,28.9
2017-08-03T03:20:56.585Z,28.8
2017-08-03T03:21:58.364Z,28.9
2017-08-03T03:23:00.164Z,28.8
2017-08-03T03:24:01.941Z,28.9
2017-08-03T03:25:04.075Z,28.9
2017-08-03T03:26:06.206Z,28.9
2017-08-03T03:27:08.339Z,28.9
2017-08-03T03:28:10.470Z,28.8
2017-08-03T03:29:12.602Z,28.9
2017-08-03T03:30:14.733Z,28.9
2017-08-03T03:31:16.534Z,28.8
2017-08-03T03:32:18.668Z,28.9
2017-08-03T03:33:20.799Z,28.9
2017-08-03T03:34:22.595Z,28.9
2017-08-03T03:35:24.727Z,28.9
2017-08-03T03:36:26.855Z,28.9
2017-08-03T03:37:28.631Z,28.9
2017-08-03T03:38:30.081Z,28.8
2017-08-03T03:39:31.879Z,28.8
2017-08-03T03:40:34.011Z,28.9
2017-08-03T03:41:35.810Z,28.8
2017-08-03T03:42:37.612Z,28.8
2017-08-03T03:43:39.060Z,28.9
2017-08-03T03:44:41.192Z,28.8
2017-08-03T03:45:43.325Z,28.8
2017-08-03T03:46:44.775Z,28.8
2017-08-03T03:47:45.916Z,28.8
2017-08-03T03:48:46.694Z,28.8
2017-08-03T03:49:48.824Z,28.9
2017-08-03T03:50:50.627Z,28.9
2017-08-03T03:51:52.429Z,28.9
2017-08-03T03:52:54.226Z,28.9
2017-08-03T03:53:56.359Z,28.8
2017-08-03T03:54:58.161Z,28.9
2017-08-03T03:56:00.294Z,28.8
2017-08-03T03:57:01.740Z,28.9
2017-08-03T03:58:03.874Z,28.9
2017-08-03T03:59:05.344Z,28.8
2017-08-03T04:00:07.477Z,28.8
2017-08-03T04:01:09.611Z,28.8
2017-08-03T04:02:11.745Z,28.8
2017-08-03T04:03:13.193Z,28.8
2017-08-03T04:04:14.664Z,28.9
2017-08-03T04:05:16.463Z,28.9
2017-08-03T04:06:18.594Z,28.8
2017-08-03T04:07:20.370Z,28.9
2017-08-03T04:08:22.506Z,28.9
2017-08-03T04:09:24.636Z,28.8
2017-08-03T04:10:26.436Z,28.8
2017-08-03T04:11:28.572Z,28.8
2017-08-03T04:12:30.014Z,28.8
2017-08-03T04:13:31.479Z,28.8
2017-08-03T04:14:33.615Z,28.9
2017-08-03T04:15:35.750Z,28.9
2017-08-03T04:16:37.191Z,28.9
2017-08-03T04:17:38.986Z,28.9
2017-08-03T04:18:40.765Z,28.8
2017-08-03T04:19:42.567Z,28.9
2017-08-03T04:20:44.701Z,28.8
2017-08-03T04:21:46.842Z,28.8
2017-08-03T04:22:48.972Z,28.9
2017-08-03T04:23:50.417Z,28.9
2017-08-03T04:24:52.215Z,28.9
2017-08-03T04:25:53.995Z,28.8
2017-08-03T04:26:56.127Z,28.8
2017-08-03T04:27:58.316Z,28.8
2017-08-03T04:28:59.778Z,28.9
2017-08-03T04:30:01.232Z,28.8
2017-08-03T04:31:03.363Z,28.9
2017-08-03T04:32:04.832Z,28.8
2017-08-03T04:33:06.633Z,28.8
2017-08-03T04:34:08.437Z,28.9
2017-08-03T04:35:09.884Z,28.8
2017-08-03T04:36:11.688Z,28.9
2017-08-03T04:37:13.490Z,28.9
2017-08-03T04:38:15.293Z,28.9
2017-08-03T04:39:17.094Z,28.9
2017-08-03T04:40:18.892Z,28.9
2017-08-03T04:41:21.025Z,28.9
2017-08-03T04:42:23.156Z,28.9
2017-08-03T04:43:24.960Z,28.9
2017-08-03T04:44:27.094Z,28.9
2017-08-03T04:45:28.896Z,28.8
2017-08-03T04:46:30.673Z,28.9
2017-08-03T04:47:32.805Z,28.8
2017-08-03T04:48:34.936Z,28.9
2017-08-03T04:49:36.740Z,28.9
2017-08-03T04:50:38.544Z,28.8
2017-08-03T04:51:40.346Z,28.9
2017-08-03T04:52:41.813Z,28.9
2017-08-03T04:53:43.612Z,28.9
2017-08-03T04:54:45.742Z,28.8
2017-08-03T04:55:47.880Z,28.8
2017-08-03T04:56:50.011Z,28.8
2017-08-03T04:57:51.809Z,28.8
2017-08-03T04:58:54.045Z,28.9
2017-08-03T04:59:55.844Z,28.8
2017-08-03T05:00:57.646Z,28.8
2017-08-03T05:01:59.777Z,28.8
2017-08-03T05:03:01.580Z,28.8
2017-08-03T05:04:03.714Z,28.8
2017-08-03T05:05:05.843Z,28.9
2017-08-03T05:06:07.648Z,28.9
2017-08-03T05:07:09.784Z,28.9
2017-08-03T05:08:11.586Z,28.9
2017-08-03T05:09:13.716Z,28.9
2017-08-03T05:10:15.522Z,28.8
2017-08-03T05:11:17.648Z,28.8
2017-08-03T05:12:19.120Z,28.8
2017-08-03T05:13:20.893Z,28.8
2017-08-03T05:14:22.024Z,28.9
2017-08-03T05:15:23.821Z,28.9
2017-08-03T05:16:25.952Z,28.9
2017-08-03T05:17:27.421Z,28.8
2017-08-03T05:18:29.556Z,28.8
2017-08-03T05:19:31.002Z,28.9
2017-08-03T05:20:33.137Z,28.9
2017-08-03T05:21:34.603Z,28.9
2017-08-03T05:22:36.387Z,28.8
2017-08-03T05:23:37.836Z,28.9
2017-08-03T05:24:40.017Z,28.8
2017-08-03T05:25:41.814Z,28.9
2017-08-03T05:26:43.941Z,28.8
2017-08-03T05:27:45.051Z,28.9
2017-08-03T05:28:47.184Z,28.9
2017-08-03T05:29:49.315Z,28.9
2017-08-03T05:30:51.448Z,28.9
2017-08-03T05:31:53.246Z,28.9
2017-08-03T05:32:54.714Z,28.8
2017-08-03T05:33:56.847Z,28.9
2017-08-03T05:34:58.394Z,28.9
2017-08-03T05:36:00.525Z,28.8
2017-08-03T05:37:02.309Z,28.9
2017-08-03T05:38:03.799Z,28.8
2017-08-03T05:39:05.267Z,28.9
2017-08-03T05:40:07.402Z,28.9
2017-08-03T05:41:09.193Z,28.9
2017-08-03T05:42:11.324Z,28.8
2017-08-03T05:43:13.130Z,28.8
2017-08-03T05:44:15.264Z,28.9
2017-08-03T05:45:17.041Z,28.9
2017-08-03T05:46:18.844Z,28.9
2017-08-03T05:47:20.975Z,28.9
2017-08-03T05:48:22.750Z,28.9
2017-08-03T05:49:24.883Z,28.8
2017-08-03T05:50:27.013Z,28.8
2017-08-03T05:51:28.817Z,28.9
2017-08-03T05:52:30.614Z,28.9
2017-08-03T05:53:32.748Z,28.9
2017-08-03T05:54:34.883Z,28.8
2017-08-03T05:55:36.334Z,28.8
2017-08-03T05:56:38.130Z,28.9
2017-08-03T05:57:39.602Z,28.9
2017-08-03T05:58:41.044Z,28.9
2017-08-03T05:59:42.513Z,28.9
2017-08-03T06:00:44.646Z,28.9
2017-08-03T06:01:46.447Z,28.9
2017-08-03T06:02:48.259Z,28.9
2017-08-03T06:03:49.732Z,28.9
2017-08-03T06:04:51.532Z,28.9
2017-08-03T06:05:53.666Z,28.9
2017-08-03T06:06:54.777Z,28.9
2017-08-03T06:07:56.912Z,28.9
2017-08-03T06:08:59.046Z,28.9
2017-08-03T06:10:00.517Z,28.8
2017-08-03T06:11:02.647Z,28.8
2017-08-03T06:12:04.449Z,28.9
2017-08-03T06:13:06.237Z,28.9
2017-08-03T06:14:08.370Z,28.9
2017-08-03T06:15:10.507Z,28.9
2017-08-03T06:16:12.321Z,28.9
2017-08-03T06:17:14.450Z,28.9
2017-08-03T06:18:16.233Z,28.9
2017-08-03T06:19:17.701Z,28.9
2017-08-03T06:20:19.501Z,29
2017-08-03T06:21:21.640Z,28.9
2017-08-03T06:22:23.771Z,28.9
2017-08-03T06:23:25.574Z,28.9
2017-08-03T06:24:27.025Z,28.8
2017-08-03T06:25:28.826Z,28.9
2017-08-03T06:26:30.962Z,28.9
2017-08-03T06:27:33.092Z,28.9
2017-08-03T06:28:35.224Z,28.9
2017-08-03T06:29:36.695Z,28.9
2017-08-03T06:30:38.496Z,28.9
2017-08-03T06:31:40.295Z,28.9
2017-08-03T06:32:42.077Z,28.9
2017-08-03T06:33:43.877Z,28.8
2017-08-03T06:34:45.340Z,28.9
2017-08-03T06:35:47.140Z,28.9
2017-08-03T06:36:49.276Z,28.8
2017-08-03T06:37:51.077Z,28.9
2017-08-03T06:38:53.214Z,29
2017-08-03T06:39:54.991Z,28.9
2017-08-03T06:40:56.117Z,28.9
2017-08-03T06:41:57.244Z,28.9
2017-08-03T06:42:59.059Z,28.9
2017-08-03T06:44:00.524Z,28.9
2017-08-03T06:45:01.968Z,28.9
2017-08-03T06:46:04.098Z,28.9
2017-08-03T06:47:05.900Z,28.9
2017-08-03T06:48:07.370Z,28.9
2017-08-03T06:49:09.502Z,28.9
2017-08-03T06:50:11.302Z,28.9
2017-08-03T06:51:13.101Z,28.9
2017-08-03T06:52:14.569Z,28.9
2017-08-03T06:53:16.378Z,28.9
2017-08-03T06:54:18.182Z,28.9
2017-08-03T06:55:19.315Z,28.9
2017-08-03T06:56:20.784Z,28.9
2017-08-03T06:57:22.580Z,28.9
2017-08-03T06:58:24.365Z,28.9
2017-08-03T06:59:25.809Z,28.9
2017-08-03T07:00:27.614Z,28.9
2017-08-03T07:01:29.746Z,28.9
2017-08-03T07:02:31.195Z,28.9
2017-08-03T07:03:32.990Z,28.9
2017-08-03T07:04:35.125Z,29
2017-08-03T07:05:36.236Z,28.9
2017-08-03T07:06:38.039Z,28.9
2017-08-03T07:07:40.168Z,28.9
2017-08-03T07:08:41.615Z,28.9
2017-08-03T07:09:43.748Z,28.9
2017-08-03T07:10:45.880Z,28.9
2017-08-03T07:11:47.688Z,28.9
2017-08-03T07:12:49.157Z,28.9
2017-08-03T07:13:51.289Z,28.9
2017-08-03T07:14:52.410Z,28.9
2017-08-03T07:15:54.539Z,28.9
2017-08-03T07:16:56.364Z,28.9
2017-08-03T07:17:58.168Z,28.9
2017-08-03T07:18:59.943Z,28.9
2017-08-03T07:20:01.385Z,28.9
2017-08-03T07:21:02.508Z,28.9
2017-08-03T07:22:04.688Z,28.9
2017-08-03T07:23:06.467Z,28.9
2017-08-03T07:24:08.272Z,28.9
2017-08-03T07:25:10.406Z,28.9
2017-08-03T07:26:12.547Z,28.9
2017-08-03T07:27:14.676Z,28.9
2017-08-03T07:28:16.462Z,28.9
2017-08-03T07:29:18.267Z,28.9
2017-08-03T07:30:20.068Z,28.9
2017-08-03T07:31:22.201Z,28.9
2017-08-03T07:32:24.335Z,28.9
2017-08-03T07:33:26.467Z,28.9
2017-08-03T07:34:28.599Z,28.9
2017-08-03T07:35:30.396Z,28.8
2017-08-03T07:36:32.193Z,28.9
2017-08-03T07:37:33.651Z,28.9
2017-08-03T07:38:35.442Z,28.8
2017-08-03T07:39:37.246Z,28.9
2017-08-03T07:40:39.379Z,28.9
2017-08-03T07:41:41.179Z,28.9
2017-08-03T07:42:42.981Z,28.9
2017-08-03T07:43:44.096Z,28.9
2017-08-03T07:44:46.254Z,28.9
2017-08-03T07:45:48.372Z,28.9
2017-08-03T07:46:49.845Z,28.9
2017-08-03T07:47:50.956Z,28.9
2017-08-03T07:48:53.090Z,28.9
2017-08-03T07:49:54.214Z,28.9
2017-08-03T07:50:56.347Z,28.9
2017-08-03T07:51:58.479Z,28.9
2017-08-03T07:53:00.279Z,29
2017-08-03T07:54:02.082Z,28.9
2017-08-03T07:55:03.862Z,29
2017-08-03T07:56:05.662Z,28.9
2017-08-03T07:57:07.466Z,28.9
2017-08-03T07:58:09.603Z,28.9
2017-08-03T07:59:11.401Z,28.9
2017-08-03T08:00:12.527Z,28.9
2017-08-03T08:01:14.657Z,29
2017-08-03T08:02:16.458Z,29
2017-08-03T08:03:18.241Z,29
2017-08-03T08:04:20.373Z,28.9
2017-08-03T08:05:22.152Z,29
2017-08-03T08:06:23.949Z,28.9
2017-08-03T08:07:25.419Z,28.9
2017-08-03T08:08:27.198Z,28.9
2017-08-03T08:09:28.998Z,28.9
2017-08-03T08:10:30.800Z,28.9
2017-08-03T08:11:32.935Z,28.9
2017-08-03T08:12:35.069Z,28.9
2017-08-03T08:13:37.201Z,29
2017-08-03T08:14:38.984Z,28.9
2017-08-03T08:15:40.097Z,28.9
2017-08-03T08:16:41.212Z,29
2017-08-03T08:17:43.344Z,29
2017-08-03T08:18:45.134Z,29
2017-08-03T08:19:47.268Z,29
2017-08-03T08:20:48.738Z,29
2017-08-03T08:21:50.869Z,29
2017-08-03T08:22:52.654Z,29
2017-08-03T08:23:54.100Z,28.9
2017-08-03T08:24:55.900Z,28.9
2017-08-03T08:25:57.703Z,28.9
2017-08-03T08:26:59.848Z,28.9
2017-08-03T08:28:01.980Z,29
2017-08-03T08:29:03.755Z,28.9
2017-08-03T08:30:05.202Z,28.9
2017-08-03T08:31:06.977Z,28.9
2017-08-03T08:32:08.114Z,28.9
2017-08-03T08:33:09.917Z,29
2017-08-03T08:34:12.051Z,28.9
2017-08-03T08:35:14.186Z,29
2017-08-03T08:36:15.990Z,29.1
2017-08-03T08:37:17.789Z,29
2017-08-03T08:38:18.901Z,29
2017-08-03T08:39:20.702Z,29
2017-08-03T08:40:22.836Z,29
2017-08-03T08:41:24.968Z,29
2017-08-03T08:42:26.743Z,29
2017-08-03T08:43:28.550Z,29
2017-08-03T08:44:30.350Z,29
2017-08-03T08:45:32.485Z,29
2017-08-03T08:46:34.618Z,29
2017-08-03T08:47:36.750Z,29
2017-08-03T08:48:38.532Z,29
2017-08-03T08:49:40.325Z,29
2017-08-03T08:50:42.102Z,29.1
2017-08-03T08:51:43.904Z,29.1
2017-08-03T08:52:46.036Z,29.1
2017-08-03T08:53:47.484Z,29
2017-08-03T08:54:49.618Z,29
2017-08-03T08:55:51.419Z,29
2017-08-03T08:56:53.220Z,29.1
2017-08-03T08:57:55.021Z,29
2017-08-03T08:58:56.489Z,29
2017-08-03T08:59:58.295Z,29.1
2017-08-03T09:01:00.426Z,29
2017-08-03T09:02:02.561Z,29.1
2017-08-03T09:03:04.343Z,29.1
2017-08-03T09:04:06.143Z,29.1
2017-08-03T09:05:07.588Z,29
2017-08-03T09:06:09.391Z,29.1
2017-08-03T09:07:11.202Z,29.1
2017-08-03T09:08:13.338Z,29.1
2017-08-03T09:09:14.475Z,29.1
2017-08-03T09:10:16.608Z,29.1
2017-08-03T09:11:18.741Z,29.1
2017-08-03T09:12:20.893Z,29.1
2017-08-03T09:13:23.029Z,29.2
2017-08-03T09:14:25.163Z,29.1
2017-08-03T09:15:27.297Z,29.1
2017-08-03T09:16:29.105Z,29.1
2017-08-03T09:17:30.902Z,29.1
2017-08-03T09:18:32.705Z,29.1
2017-08-03T09:19:34.841Z,29.1
2017-08-03T09:20:36.973Z,29.1
2017-08-03T09:21:39.107Z,29.1
2017-08-03T09:22:40.915Z,29.1
2017-08-03T09:23:42.715Z,29.2
2017-08-03T09:24:44.845Z,29.1
2017-08-03T09:25:46.743Z,29.2
2017-08-03T09:26:48.209Z,29.1
2017-08-03T09:27:49.677Z,29.2
2017-08-03T09:28:51.810Z,29.1
2017-08-03T09:29:53.585Z,29.2
2017-08-03T09:30:55.384Z,29.2
2017-08-03T09:31:56.855Z,29.2
2017-08-03T09:32:59.000Z,29.2
2017-08-03T09:34:00.794Z,29.2
2017-08-03T09:35:02.575Z,29.2
2017-08-03T09:36:04.377Z,29.2
2017-08-03T09:37:06.176Z,29.2
2017-08-03T09:38:07.976Z,29.1
2017-08-03T09:39:09.424Z,29.1
2017-08-03T09:40:11.225Z,29.2
2017-08-03T09:41:12.679Z,29.2
2017-08-03T09:42:14.813Z,29.3
2017-08-03T09:43:16.599Z,29.3
2017-08-03T09:44:18.734Z,29.2
2017-08-03T09:45:20.870Z,29.2
2017-08-03T09:46:22.670Z,29.2
2017-08-03T09:47:24.471Z,29.2
2017-08-03T09:48:26.606Z,29.3
2017-08-03T09:49:28.405Z,29.3
2017-08-03T09:50:30.542Z,29.3
2017-08-03T09:51:32.347Z,29.3
2017-08-03T09:52:34.128Z,29.3
2017-08-03T09:53:35.906Z,29.2
2017-08-03T09:54:37.376Z,29.3
2017-08-03T09:55:39.510Z,29.3
2017-08-03T09:56:41.645Z,29.4
2017-08-03T09:57:42.768Z,29.3
2017-08-03T09:58:44.545Z,29.3
2017-08-03T09:59:45.999Z,29.4
2017-08-03T10:00:48.133Z,29.3
2017-08-03T10:01:50.270Z,29.3
2017-08-03T10:02:52.052Z,29.3
2017-08-03T10:03:53.851Z,29.3
2017-08-03T10:04:55.630Z,29.3
2017-08-03T10:05:57.434Z,29.3
2017-08-03T10:06:59.230Z,29.2
2017-08-03T10:08:01.030Z,29.3
2017-08-03T10:09:03.163Z,29.3
2017-08-03T10:10:05.296Z,29.3
2017-08-03T10:11:06.767Z,29.2
2017-08-03T10:12:08.902Z,29.3
2017-08-03T10:13:10.371Z,29.3
2017-08-03T10:14:11.821Z,29.3
2017-08-03T10:15:13.959Z,29.3
2017-08-03T10:16:15.759Z,29.3
2017-08-03T10:17:17.891Z,29.3
2017-08-03T10:18:20.024Z,29.3
2017-08-03T10:19:21.810Z,29.3
2017-08-03T10:20:23.937Z,29.4
2017-08-03T10:21:25.051Z,29.4
2017-08-03T10:22:27.184Z,29.3
2017-08-03T10:23:29.320Z,29.3
2017-08-03T10:24:31.453Z,29.4
2017-08-03T10:25:33.266Z,29.4
2017-08-03T10:26:35.403Z,29.4
2017-08-03T10:27:36.869Z,29.4
2017-08-03T10:28:39.002Z,29.4
2017-08-03T10:29:40.803Z,29.4
2017-08-03T10:30:41.928Z,29.3
2017-08-03T10:31:44.065Z,29.4
2017-08-03T10:32:46.198Z,29.4
2017-08-03T10:33:48.330Z,29.4
2017-08-03T10:34:50.464Z,29.4
2017-08-03T10:35:52.271Z,29.4
2017-08-03T10:36:54.171Z,29.5
2017-08-03T10:37:55.953Z,29.5
2017-08-03T10:38:57.751Z,29.5
2017-08-03T10:39:59.528Z,29.5
2017-08-03T10:41:01.662Z,29.5
2017-08-03T10:42:02.801Z,29.5
2017-08-03T10:43:04.600Z,29.5
2017-08-03T10:44:06.072Z,29.5
2017-08-03T10:45:07.874Z,29.5
2017-08-03T10:46:10.008Z,29.5
2017-08-03T10:47:11.806Z,29.5
2017-08-03T10:48:13.278Z,29.5
2017-08-03T10:49:15.414Z,29.5
2017-08-03T10:50:17.211Z,29.4
2017-08-03T10:51:19.009Z,29.6
2017-08-03T10:52:21.140Z,29.5
2017-08-03T10:53:23.275Z,29.6
2017-08-03T10:54:25.058Z,29.5
2017-08-03T10:55:26.509Z,29.6
2017-08-03T10:56:28.314Z,29.5
2017-08-03T10:57:30.443Z,29.5
2017-08-03T10:58:32.575Z,29.6
2017-08-03T10:59:34.711Z,29.7
2017-08-03T11:00:36.843Z,29.6
2017-08-03T11:01:38.641Z,29.6
2017-08-03T11:02:40.774Z,29.6
2017-08-03T11:03:42.227Z,29.6
2017-08-03T11:04:44.029Z,29.6
2017-08-03T11:05:45.501Z,29.6
2017-08-03T11:06:46.971Z,29.6
2017-08-03T11:07:48.774Z,29.6
2017-08-03T11:08:50.577Z,29.5
2017-08-03T11:09:52.379Z,29.6
2017-08-03T11:10:54.177Z,29.6
2017-08-03T11:11:55.647Z,29.6
2017-08-03T11:12:57.453Z,29.6
2017-08-03T11:13:59.582Z,29.6
2017-08-03T11:15:01.035Z,29.5
2017-08-03T11:16:02.841Z,29.6
2017-08-03T11:17:04.977Z,29.6
2017-08-03T11:18:06.775Z,29.6
2017-08-03T11:19:08.906Z,29.6
2017-08-03T11:20:11.039Z,29.6
2017-08-03T11:21:13.171Z,29.5
2017-08-03T11:22:14.981Z,29.5
2017-08-03T11:23:17.164Z,29.6
2017-08-03T11:24:19.298Z,29.6
2017-08-03T11:25:21.075Z,29.6
2017-08-03T11:26:23.209Z,29.6
2017-08-03T11:27:24.660Z,29.6
2017-08-03T11:28:26.462Z,29.6
2017-08-03T11:29:28.609Z,29.6
2017-08-03T11:30:30.735Z,29.6
2017-08-03T11:31:32.869Z,29.6
2017-08-03T11:32:34.316Z,29.6
2017-08-03T11:33:36.115Z,29.6
2017-08-03T11:34:37.921Z,29.6
2017-08-03T11:35:40.067Z,29.6
2017-08-03T11:36:42.199Z,29.6
2017-08-03T11:37:44.336Z,29.6
2017-08-03T11:38:46.219Z,29.6
2017-08-03T11:39:48.352Z,29.7
2017-08-03T11:40:50.157Z,29.6
2017-08-03T11:41:51.599Z,29.6
2017-08-03T11:42:53.403Z,29.6
2017-08-03T11:43:55.254Z,29.7
2017-08-03T11:44:56.705Z,29.7
2017-08-03T11:45:58.504Z,29.6
2017-08-03T11:46:59.952Z,29.6
2017-08-03T11:48:01.750Z,29.7
2017-08-03T11:49:03.935Z,29.7
2017-08-03T11:50:05.052Z,29.7
2017-08-03T11:51:07.189Z,29.7
2017-08-03T11:52:08.991Z,29.7
2017-08-03T11:53:10.457Z,29.7
2017-08-03T11:54:12.258Z,29.7
2017-08-03T11:55:14.039Z,29.7
2017-08-03T11:56:16.178Z,29.7
2017-08-03T11:57:18.308Z,29.7
2017-08-03T11:58:19.781Z,29.7
2017-08-03T11:59:21.582Z,29.6
2017-08-03T12:00:23.739Z,29.7
2017-08-03T12:01:25.519Z,29.7
2017-08-03T12:02:27.325Z,29.7
2017-08-03T12:03:29.128Z,29.6
2017-08-03T12:04:31.264Z,29.6
2017-08-03T12:05:32.735Z,29.7
2017-08-03T12:06:34.867Z,29.7
2017-08-03T12:07:37.000Z,29.8
2017-08-03T12:08:38.452Z,29.7
2017-08-03T12:09:40.257Z,29.8
2017-08-03T12:10:42.396Z,29.7
2017-08-03T12:11:44.184Z,29.7
2017-08-03T12:12:45.985Z,29.8
2017-08-03T12:13:47.789Z,29.9
2017-08-03T12:14:49.590Z,29.7
2017-08-03T12:15:51.728Z,29.7
2017-08-03T12:16:53.526Z,29.7
2017-08-03T12:17:54.982Z,29.8
2017-08-03T12:18:56.782Z,29.7
2017-08-03T12:19:58.585Z,29.7
2017-08-03T12:21:00.363Z,29.7
2017-08-03T12:22:01.813Z,29.7
2017-08-03T12:23:03.612Z,29.8
2017-08-03T12:24:05.414Z,29.7
2017-08-03T12:25:07.218Z,29.7
2017-08-03T12:26:09.003Z,29.7
2017-08-03T12:27:11.137Z,29.8
2017-08-03T12:28:12.940Z,29.8
2017-08-03T12:29:14.720Z,29.7
2017-08-03T12:30:16.852Z,29.7
2017-08-03T12:31:18.303Z,29.7
2017-08-03T12:32:20.437Z,29.7
2017-08-03T12:33:22.241Z,29.8
2017-08-03T12:34:24.379Z,29.8
2017-08-03T12:35:26.515Z,29.7
2017-08-03T12:36:28.320Z,29.7
2017-08-03T12:37:30.123Z,29.7
2017-08-03T12:38:32.257Z,29.6
2017-08-03T12:39:34.392Z,29.7
2017-08-03T12:40:35.848Z,29.7
2017-08-03T12:41:37.984Z,29.7
2017-08-03T12:42:39.784Z,29.8
2017-08-03T12:43:41.919Z,29.7
2017-08-03T12:44:43.702Z,29.7
2017-08-03T12:45:45.478Z,29.7
2017-08-03T12:46:47.283Z,29.8
2017-08-03T12:47:49.066Z,29.7
2017-08-03T12:48:50.200Z,29.8
2017-08-03T12:49:52.337Z,29.8
2017-08-03T12:50:53.787Z,29.8
2017-08-03T12:51:55.918Z,29.8
2017-08-03T12:52:57.721Z,29.7
2017-08-03T12:53:59.519Z,29.8
2017-08-03T12:55:01.322Z,29.8
2017-08-03T12:56:02.769Z,29.8
2017-08-03T12:57:04.218Z,29.8
2017-08-03T12:58:05.329Z,29.7
2017-08-03T12:59:06.450Z,29.8
2017-08-03T13:00:07.586Z,29.7
2017-08-03T13:01:09.054Z,29.7
2017-08-03T13:02:10.835Z,29.7
2017-08-03T13:03:12.971Z,29.8
2017-08-03T13:04:14.418Z,29.8
2017-08-03T13:05:16.551Z,29.8
2017-08-03T13:06:18.734Z,29.7
2017-08-03T13:07:20.516Z,29.8
2017-08-03T13:08:22.318Z,29.7
2017-08-03T13:09:24.448Z,29.7
2017-08-03T13:10:26.684Z,29.7
2017-08-03T13:11:28.136Z,29.8
2017-08-03T13:12:30.272Z,29.8
2017-08-03T13:13:32.406Z,29.7
2017-08-03T13:14:34.204Z,29.7
2017-08-03T13:15:36.341Z,29.7
2017-08-03T13:16:38.142Z,29.8
2017-08-03T13:17:39.938Z,29.9
2017-08-03T13:18:41.722Z,29.8
2017-08-03T13:19:43.519Z,29.8
2017-08-03T13:20:44.991Z,29.8
2017-08-03T13:21:47.124Z,29.8
2017-08-03T13:22:49.265Z,29.8
2017-08-03T13:23:51.403Z,29.8
2017-08-03T13:24:53.534Z,29.9
2017-08-03T13:25:55.669Z,29.8
2017-08-03T13:26:57.133Z,29.9
2017-08-03T13:27:58.931Z,30
2017-08-03T13:29:01.063Z,30
2017-08-03T13:30:02.844Z,30
2017-08-03T13:31:04.976Z,29.9
2017-08-03T13:32:06.754Z,30
2017-08-03T13:33:08.555Z,29.9
2017-08-03T13:34:10.363Z,30
2017-08-03T13:35:11.831Z,30
2017-08-03T13:36:13.963Z,29.9
2017-08-03T13:37:15.763Z,30
2017-08-03T13:38:17.562Z,29.9
2017-08-03T13:39:19.016Z,29.9
2017-08-03T13:40:20.807Z,30
2017-08-03T13:41:22.942Z,29.9
2017-08-03T13:42:24.744Z,29.9
2017-08-03T13:43:26.880Z,30
2017-08-03T13:44:29.012Z,29.9
2017-08-03T13:45:31.145Z,29.9
2017-08-03T13:46:33.281Z,29.9
2017-08-03T13:47:35.413Z,29.8
2017-08-03T13:48:37.546Z,29.9
2017-08-03T13:49:39.685Z,29.9
2017-08-03T13:50:41.150Z,29.9
2017-08-03T13:51:42.926Z,29.8